Time;durP1;ratioP1;P1;durP2;ratioP2;P2;SDS_P1;SDS_P2;PMS_P1;PMS_P2;Temp;Humidity;BMP_temperature;BMP_pressure;BME280_temperature;BME280_humidity;BME280_pressure;Samples;Min_cycle;Max_cycle;Signal;HPM_P1;HPM_P2
2023/04/29 00:02:18;;;;;;;;;;;;;;;14.48;43.10;100114.56;4924949;28;97904;-72
2023/04/29 00:04:46;;;;;;;;;;;;;;;14.46;42.99;100103.19;4923986;28;98120;-76
2023/04/29 00:07:14;;;;;;;;;;;;;;;14.46;42.76;100103.19;4922487;28;98268;-76
2023/04/29 00:09:42;;;;;;;;;;;;;;;14.45;43.12;100110.53;4934419;28;98701;-77
2023/04/29 00:12:09;;;;;;;;;;;;;;;14.45;43.02;100098.88;4957256;28;98172;-72
2023/04/29 00:14:36;;;;;;;;;;;;;;;14.44;43.16;100095.38;4944128;28;98060;-71
2023/04/29 00:17:02;;;;;;;;;;;;;;;14.43;43.14;100092.97;4958993;28;98362;-72
2023/04/29 00:19:29;;;;;;;;;;;;;;;14.42;43.17;100086.75;4944379;28;98399;-72
2023/04/29 00:21:55;;;;;;;;;;;;;;;14.42;43.38;100075.09;4959332;28;98462;-71
2023/04/29 00:24:21;;;;;;;;;;;;;;;14.41;43.17;100082.41;4941494;28;98887;-72
2023/04/29 00:26:48;;;;;;;;;;;;;;;14.41;42.97;100087.03;4940622;27;98125;-77
2023/04/29 00:29:14;;;;;;;;;;;;;;;14.40;43.20;100090.88;4960414;27;98441;-76
2023/04/29 00:31:41;;;;;;;;;;;;;;;14.39;43.15;100091.97;4955334;27;98791;-76
2023/04/29 00:34:07;;;;;;;;;;;;;;;14.38;42.92;100090.34;4959964;27;99521;-72
2023/04/29 00:36:34;;;;;;;;;;;;;;;14.35;42.85;100088.25;4961183;28;98127;-76
2023/04/29 00:39:02;;;;;;;;;;;;;;;14.35;42.91;100093.69;4954864;27;98384;-76
2023/04/29 00:41:30;;;;;;;;;;;;;;;14.34;43.11;100087.44;4958571;28;98301;-76
2023/04/29 00:43:57;;;;;;;;;;;;;;;14.33;43.30;100093.97;4960124;28;98505;-71
2023/04/29 00:46:23;;;;;;;;;;;;;;;14.32;42.79;100089.66;4955462;28;98047;-76
2023/04/29 00:48:50;;;;;;;;;;;;;;;14.30;43.30;100080.22;4961968;28;98416;-72
2023/04/29 00:51:16;;;;;;;;;;;;;;;14.31;42.87;100082.63;4956307;28;100485;-72
2023/04/29 00:53:43;;;;;;;;;;;;;;;14.29;43.16;100079.41;4962106;27;98058;-76
2023/04/29 00:56:12;;;;;;;;;;;;;;;14.28;43.00;100075.09;4958982;28;98152;-71
2023/04/29 00:58:39;;;;;;;;;;;;;;;14.28;42.88;100088.66;4973692;27;98492;-71
2023/04/29 01:01:06;;;;;;;;;;;;;;;14.27;42.91;100084.34;4961485;28;100313;-72
2023/04/29 01:03:33;;;;;;;;;;;;;;;14.27;42.94;100080.84;4955361;28;99685;-76
2023/04/29 01:06:12;;;;;;;;;;;;;;;14.26;43.09;100090.84;4961183;28;98022;-76
2023/04/29 01:08:51;;;;;;;;;;;;;;;14.24;43.25;100083.03;4963003;27;98132;-76
2023/04/29 01:11:22;;;;;;;;;;;;;;;14.22;42.99;100084.41;4961739;27;98291;-76
2023/04/29 01:13:59;;;;;;;;;;;;;;;14.20;43.00;100092.06;4964011;27;98533;-76
2023/04/29 01:16:50;;;;;;;;;;;;;;;14.17;43.08;100084.53;4944667;27;98173;-77
2023/04/29 01:19:30;;;;;;;;;;;;;;;14.14;42.99;100085.13;4964907;27;98088;-71
2023/04/29 01:21:56;;;;;;;;;;;;;;;14.12;43.37;100096.28;4956082;27;99366;-72
2023/04/29 01:24:22;;;;;;;;;;;;;;;14.11;43.35;100096.56;4958872;27;99580;-77
2023/04/29 01:26:54;;;;;;;;;;;;;;;14.09;43.33;100090.66;4940342;27;98541;-76
2023/04/29 01:29:42;;;;;;;;;;;;;;;14.08;43.22;100094.47;4960241;27;98393;-71
2023/04/29 01:32:12;;;;;;;;;;;;;;;14.06;42.94;100096.66;4979422;27;98142;-71
2023/04/29 01:34:50;;;;;;;;;;;;;;;14.03;43.04;100089.94;4947795;27;99978;-72
2023/04/29 01:37:44;;;;;;;;;;;;;;;14.03;43.00;100092.66;4963405;27;99818;-71
2023/04/29 01:42:58;;;;;;;;;;;;;;;14.02;43.37;100084.81;4997241;27;128496;-77
2023/04/29 01:45:25;;;;;;;;;;;;;;;13.99;43.06;100070.78;4980360;27;99393;-76
2023/04/29 01:47:52;;;;;;;;;;;;;;;13.98;43.24;100077.28;4956679;27;98032;-72
2023/04/29 01:50:20;;;;;;;;;;;;;;;13.96;43.20;100084.13;4943035;27;98020;-77
2023/04/29 01:52:46;;;;;;;;;;;;;;;13.96;43.11;100092.25;4961333;27;99603;-72
2023/04/29 01:55:12;;;;;;;;;;;;;;;13.95;43.06;100096.88;4939688;27;98366;-77
2023/04/29 01:57:39;;;;;;;;;;;;;;;13.94;43.18;100097.94;4948121;27;98236;-77
2023/04/29 02:00:05;;;;;;;;;;;;;;;13.94;43.04;100105.25;4938632;27;98411;-71
2023/04/29 02:02:31;;;;;;;;;;;;;;;13.93;43.41;100109.09;4946828;27;98555;-76
2023/04/29 02:04:58;;;;;;;;;;;;;;;13.93;43.32;100111.78;4948163;27;98500;-71
2023/04/29 02:07:24;;;;;;;;;;;;;;;13.93;43.18;100114.50;4946396;27;98316;-70
2023/04/29 02:09:50;;;;;;;;;;;;;;;13.92;43.35;100107.50;4957807;27;98213;-67
2023/04/29 02:12:17;;;;;;;;;;;;;;;13.91;43.04;100108.56;4967352;27;98212;-70
2023/04/29 02:14:43;;;;;;;;;;;;;;;13.91;43.10;100114.00;4959952;27;98291;-67
2023/04/29 02:17:09;;;;;;;;;;;;;;;13.89;43.14;100127.84;4981204;27;98342;-70
2023/04/29 02:19:36;;;;;;;;;;;;;;;13.89;43.33;100137.88;4964956;27;98004;-69
2023/04/29 02:22:02;;;;;;;;;;;;;;;13.87;43.51;100132.78;4964265;27;98483;-67
2023/04/29 02:24:28;;;;;;;;;;;;;;;13.88;43.30;100130.84;4966046;27;98300;-70
2023/04/29 02:26:54;;;;;;;;;;;;;;;13.86;43.52;100131.13;4967234;27;99665;-67
2023/04/29 02:29:21;;;;;;;;;;;;;;;13.86;43.46;100130.34;4963200;27;98232;-68
2023/04/29 02:31:47;;;;;;;;;;;;;;;13.85;43.35;100134.16;4959062;27;97947;-67
2023/04/29 02:34:13;;;;;;;;;;;;;;;13.85;43.30;100134.16;4963849;27;97958;-68
2023/04/29 02:36:40;;;;;;;;;;;;;;;13.85;43.47;100131.44;4966409;27;97898;-70
2023/04/29 02:39:06;;;;;;;;;;;;;;;13.83;43.47;100123.59;4960314;27;98117;-67
2023/04/29 02:41:33;;;;;;;;;;;;;;;13.83;43.62;100123.59;4943550;27;98131;-70
2023/04/29 02:43:59;;;;;;;;;;;;;;;13.83;43.45;100122.78;4948571;27;100538;-70
2023/04/29 02:46:26;;;;;;;;;;;;;;;13.82;43.47;100124.72;4966234;27;97874;-70
2023/04/29 02:48:52;;;;;;;;;;;;;;;13.81;43.54;100112.28;4960552;27;98822;-71
2023/04/29 02:51:18;;;;;;;;;;;;;;;13.81;43.49;100114.97;4963932;27;99160;-68
2023/04/29 02:53:44;;;;;;;;;;;;;;;13.81;43.49;100122.31;4962540;27;98175;-69
2023/04/29 02:56:11;;;;;;;;;;;;;;;13.79;43.48;100117.16;4941672;27;98328;-73
2023/04/29 02:58:38;;;;;;;;;;;;;;;13.79;43.63;100113.66;4978037;27;97907;-73
2023/04/29 03:01:04;;;;;;;;;;;;;;;13.78;43.38;100112.06;4947789;27;99921;-69
2023/04/29 03:03:30;;;;;;;;;;;;;;;13.78;43.18;100110.16;4939827;27;98292;-69
2023/04/29 03:05:57;;;;;;;;;;;;;;;13.77;43.44;100108.56;4959002;27;98268;-74
2023/04/29 03:08:23;;;;;;;;;;;;;;;13.75;43.50;100108.84;4958769;27;97940;-69
2023/04/29 03:10:50;;;;;;;;;;;;;;;13.75;43.20;100102.59;4961863;27;98088;-71
2023/04/29 03:13:16;;;;;;;;;;;;;;;13.75;43.33;100102.59;4944360;27;97962;-70
2023/04/29 03:15:43;;;;;;;;;;;;;;;13.74;43.49;100107.22;4944818;27;99435;-69
2023/04/29 03:18:10;;;;;;;;;;;;;;;13.73;43.36;100113.75;4964265;27;97960;-70
2023/04/29 03:20:36;;;;;;;;;;;;;;;13.73;43.45;100108.34;4959177;27;97947;-67
2023/04/29 03:23:03;;;;;;;;;;;;;;;13.74;43.52;100101.00;4945791;27;98204;-71
2023/04/29 03:25:30;;;;;;;;;;;;;;;13.73;43.31;100104.81;4949264;27;98374;-68
2023/04/29 03:27:56;;;;;;;;;;;;;;;13.73;43.60;100094.78;4947412;27;99151;-68
2023/04/29 03:30:22;;;;;;;;;;;;;;;13.73;43.65;100091.28;4964557;27;100639;-69
2023/04/29 03:32:49;;;;;;;;;;;;;;;13.72;43.14;100095.91;4964587;27;98020;-69
2023/04/29 03:35:15;;;;;;;;;;;;;;;13.73;43.60;100094.00;4961050;27;97995;-73
2023/04/29 03:37:43;;;;;;;;;;;;;;;13.73;43.62;100096.69;4965183;27;99263;-73
2023/04/29 03:40:10;;;;;;;;;;;;;;;13.72;43.39;100086.97;4949254;27;98433;-69
2023/04/29 03:42:36;;;;;;;;;;;;;;;13.72;43.39;100092.41;4947676;27;98259;-70
2023/04/29 03:45:02;;;;;;;;;;;;;;;13.72;43.29;100090.47;4964552;27;98377;-74
2023/04/29 03:47:29;;;;;;;;;;;;;;;13.72;43.49;100092.41;4963012;27;98430;-74
2023/04/29 03:49:55;;;;;;;;;;;;;;;13.72;43.63;100084.25;4963581;27;97893;-70
2023/04/29 03:52:21;;;;;;;;;;;;;;;13.71;43.32;100086.16;4966566;27;98003;-70
2023/04/29 03:54:47;;;;;;;;;;;;;;;13.72;43.60;100089.69;4943895;27;99660;-70
2023/04/29 03:57:13;;;;;;;;;;;;;;;13.70;43.37;100087.25;4963941;27;98274;-70
2023/04/29 03:59:40;;;;;;;;;;;;;;;13.71;43.60;100088.84;4964255;27;98146;-70
2023/04/29 04:02:06;;;;;;;;;;;;;;;13.70;43.52;100089.16;4964568;27;97962;-74
2023/04/29 04:04:32;;;;;;;;;;;;;;;13.70;43.38;100089.16;4964410;27;98070;-70
2023/04/29 04:07:00;;;;;;;;;;;;;;;13.69;43.70;100087.56;4945983;27;98347;-74
2023/04/29 04:09:27;;;;;;;;;;;;;;;13.70;43.74;100092.66;4955311;27;98383;-69
2023/04/29 04:11:53;;;;;;;;;;;;;;;13.70;43.49;100098.09;4946439;27;97895;-73
2023/04/29 04:14:19;;;;;;;;;;;;;;;13.69;43.31;100101.09;4947285;27;98214;-73
2023/04/29 04:16:45;;;;;;;;;;;;;;;13.70;43.78;100111.63;4963850;27;98148;-69
2023/04/29 04:19:12;;;;;;;;;;;;;;;13.70;43.53;100103.50;4946079;27;98364;-69
2023/04/29 04:21:38;;;;;;;;;;;;;;;13.70;43.70;100106.22;4947184;27;100119;-73
2023/04/29 04:24:05;;;;;;;;;;;;;;;13.71;43.73;100102.41;4951245;27;98188;-73
2023/04/29 04:26:31;;;;;;;;;;;;;;;13.71;43.48;100110.53;4939878;27;98089;-69
2023/04/29 04:28:58;;;;;;;;;;;;;;;13.72;43.43;100109.44;4960237;27;98310;-74
2023/04/29 04:31:24;;;;;;;;;;;;;;;13.73;43.50;100115.66;4939391;27;98219;-70
2023/04/29 04:33:51;;;;;;;;;;;;;;;13.74;43.45;100109.94;4947178;27;98100;-74
2023/04/29 04:36:17;;;;;;;;;;;;;;;13.77;43.51;100124.00;4940277;27;98202;-73
2023/04/29 04:38:44;;;;;;;;;;;;;;;13.78;43.57;100118.28;4958365;27;98135;-68
2023/04/29 04:41:10;;;;;;;;;;;;;;;13.77;43.68;100124.81;4961234;27;98013;-68
2023/04/29 04:43:37;;;;;;;;;;;;;;;13.81;43.40;100116.88;4957710;27;98501;-68
2023/04/29 04:46:10;;;;;;;;;;;;;;;13.87;43.67;100116.50;4956072;27;98213;-68
2023/04/29 04:48:37;;;;;;;;;;;;;;;13.95;43.63;100118.53;4942830;27;98296;-68
2023/04/29 04:51:10;;;;;;;;;;;;;;;14.01;43.71;100119.25;4942281;27;98409;-67
2023/04/29 04:53:37;;;;;;;;;;;;;;;14.07;43.81;100125.34;4959212;27;98509;-71
2023/04/29 04:56:05;;;;;;;;;;;;;;;14.11;43.33;100120.94;4956589;27;98065;-72
2023/04/29 04:58:32;;;;;;;;;;;;;;;14.14;43.53;100115.72;4958905;27;97916;-68
2023/04/29 05:01:00;;;;;;;;;;;;;;;14.18;43.69;100122.16;4939996;27;98155;-73
2023/04/29 05:03:27;;;;;;;;;;;;;;;14.21;43.43;100123.47;4946574;27;99129;-69
2023/04/29 05:05:58;;;;;;;;;;;;;;;14.25;43.42;100124.50;4955844;27;98513;-69
2023/04/29 05:08:25;;;;;;;;;;;;;;;14.28;43.80;100121.19;4956603;27;98390;-74
2023/04/29 05:10:52;;;;;;;;;;;;;;;14.42;43.35;100116.59;4951961;28;98205;-74
2023/04/29 05:13:19;;;;;;;;;;;;;;;14.63;43.01;100111.59;4955872;28;98890;-70
2023/04/29 05:15:47;;;;;;;;;;;;;;;14.79;43.30;100113.97;4951347;28;98158;-75
2023/04/29 05:18:13;;;;;;;;;;;;;;;14.90;42.96;100108.03;4943409;28;98413;-74
2023/04/29 05:20:40;;;;;;;;;;;;;;;15.11;42.98;100111.09;4933312;28;98196;-75
2023/04/29 05:23:07;;;;;;;;;;;;;;;15.22;42.98;100112.47;4952750;28;98312;-75
2023/04/29 05:25:34;;;;;;;;;;;;;;;15.34;42.64;100111.13;4933678;28;98158;-75
2023/04/29 05:28:03;;;;;;;;;;;;;;;15.43;42.80;100118.22;4935011;28;98309;-70
2023/04/29 05:30:30;;;;;;;;;;;;;;;15.46;42.94;100120.31;4939011;28;98155;-70
2023/04/29 05:32:57;;;;;;;;;;;;;;;15.49;42.99;100120.84;4954142;28;98295;-70
2023/04/29 05:35:24;;;;;;;;;;;;;;;15.49;42.95;100126.28;4954539;28;98190;-70
2023/04/29 05:37:50;;;;;;;;;;;;;;;15.46;43.19;100130.38;4965862;28;98378;-70
2023/04/29 05:40:17;;;;;;;;;;;;;;;15.44;43.19;100133.41;4935213;28;100198;-75
2023/04/29 05:42:44;;;;;;;;;;;;;;;15.42;43.24;100121.25;4949600;28;98472;-75
2023/04/29 05:45:11;;;;;;;;;;;;;;;15.37;43.35;100130.31;4955144;28;98268;-71
2023/04/29 05:47:37;;;;;;;;;;;;;;;15.37;43.39;100135.75;4959101;27;99342;-71
2023/04/29 05:50:04;;;;;;;;;;;;;;;15.38;43.14;100142.00;4939124;28;98372;-76
2023/04/29 05:52:32;;;;;;;;;;;;;;;15.36;43.22;100150.41;4954782;28;99596;-76
2023/04/29 05:54:59;;;;;;;;;;;;;;;15.35;43.18;100146.09;4945437;28;98233;-75
2023/04/29 05:57:26;;;;;;;;;;;;;;;15.34;43.22;100132.84;4940330;28;98113;-74
2023/04/29 05:59:56;;;;;;;;;;;;;;;15.31;43.34;100145.13;4935284;28;98438;-71
2023/04/29 06:02:22;;;;;;;;;;;;;;;15.27;43.50;100144.13;4942028;28;98467;-72
2023/04/29 06:04:49;;;;;;;;;;;;;;;15.23;43.38;100145.84;4939923;28;98438;-72
2023/04/29 06:07:16;;;;;;;;;;;;;;;15.21;43.56;100142.66;4941489;28;100580;-69
2023/04/29 06:09:42;;;;;;;;;;;;;;;15.17;43.41;100139.75;4934124;28;99212;-69
2023/04/29 06:12:09;;;;;;;;;;;;;;;15.17;43.71;100147.88;4960275;28;98101;-74
2023/04/29 06:14:36;;;;;;;;;;;;;;;15.18;43.50;100149.47;4970798;27;99775;-69
2023/04/29 06:17:02;;;;;;;;;;;;;;;15.21;43.64;100151.59;4971691;27;98181;-74
2023/04/29 06:19:31;;;;;;;;;;;;;;;15.21;43.57;100153.50;4960584;28;98050;-70
2023/04/29 06:21:58;;;;;;;;;;;;;;;15.17;43.72;100156.03;4959697;28;98684;-74
2023/04/29 06:24:24;;;;;;;;;;;;;;;15.17;43.67;100161.47;4957890;28;98452;-70
2023/04/29 06:26:50;;;;;;;;;;;;;;;15.20;43.50;100157.31;4952878;27;97939;-70
2023/04/29 06:29:17;;;;;;;;;;;;;;;15.22;43.37;100165.97;4957796;28;98725;-76
2023/04/29 06:31:44;;;;;;;;;;;;;;;15.24;43.51;100158.31;4953889;27;98304;-75
2023/04/29 06:34:12;;;;;;;;;;;;;;;15.30;43.63;100167.16;4955167;28;98096;-75
2023/04/29 06:36:38;;;;;;;;;;;;;;;15.36;43.46;100171.34;4970729;27;98162;-71
2023/04/29 06:39:06;;;;;;;;;;;;;;;15.40;42.99;100165.00;4943817;28;98365;-75
2023/04/29 06:41:33;;;;;;;;;;;;;;;15.42;43.40;100172.84;4958617;28;98016;-76
2023/04/29 06:43:59;;;;;;;;;;;;;;;15.43;43.47;100169.03;4969546;27;98737;-71
2023/04/29 06:46:26;;;;;;;;;;;;;;;15.48;43.21;100168.91;4939034;28;98226;-76
2023/04/29 06:48:53;;;;;;;;;;;;;;;15.45;43.34;100164.91;4951896;28;99303;-73
2023/04/29 06:51:19;;;;;;;;;;;;;;;15.50;43.42;100169.41;4958641;28;98387;-71
2023/04/29 06:53:47;;;;;;;;;;;;;;;15.70;43.10;100168.16;4940298;28;97949;-76
2023/04/29 06:56:13;;;;;;;;;;;;;;;15.94;42.86;100168.63;4942272;28;98064;-76
2023/04/29 06:58:39;;;;;;;;;;;;;;;16.32;42.41;100164.69;4957473;27;98172;-71
2023/04/29 07:01:07;;;;;;;;;;;;;;;16.96;41.64;100167.81;4955242;28;98323;-76
2023/04/29 07:03:36;;;;;;;;;;;;;;;17.39;41.71;100170.59;4953823;28;98443;-77
2023/04/29 07:06:03;;;;;;;;;;;;;;;18.02;41.18;100168.34;4958181;28;98600;-72
2023/04/29 07:08:32;;;;;;;;;;;;;;;18.28;41.16;100167.50;4959106;27;98138;-78
2023/04/29 07:10:59;;;;;;;;;;;;;;;18.38;41.37;100175.31;4944574;27;98076;-72
2023/04/29 07:13:26;;;;;;;;;;;;;;;18.57;41.48;100172.19;4945892;27;98074;-72
2023/04/29 07:15:54;;;;;;;;;;;;;;;18.66;41.73;100170.22;4946775;27;99077;-78
2023/04/29 07:18:23;;;;;;;;;;;;;;;18.51;41.87;100174.31;4940546;27;98310;-78
2023/04/29 07:20:51;;;;;;;;;;;;;;;18.44;41.97;100184.13;4944713;27;98023;-78
2023/04/29 07:23:18;;;;;;;;;;;;;;;18.60;42.03;100177.78;4945933;27;98238;-72
2023/04/29 07:25:44;;;;;;;;;;;;;;;18.61;42.06;100176.66;4959468;27;98362;-73
2023/04/29 07:28:11;;;;;;;;;;;;;;;18.62;42.10;100182.91;4960555;27;98042;-72
2023/04/29 07:30:37;;;;;;;;;;;;;;;18.79;41.96;100179.34;4963133;27;98662;-72
2023/04/29 07:33:03;;;;;;;;;;;;;;;18.86;41.94;100185.91;4940947;27;97977;-73
2023/04/29 07:35:30;;;;;;;;;;;;;;;18.85;42.09;100180.75;4940073;27;98248;-74
2023/04/29 07:38:00;;;;;;;;;;;;;;;18.74;42.32;100183.03;4959727;27;99888;-79
2023/04/29 07:40:26;;;;;;;;;;;;;;;18.76;42.37;100194.44;4961679;27;98008;-79
2023/04/29 07:42:52;;;;;;;;;;;;;;;18.95;42.09;100201.44;4958464;27;98264;-73
2023/04/29 07:45:21;;;;;;;;;;;;;;;18.98;41.97;100193.38;4956513;27;98101;-79
2023/04/29 07:47:49;;;;;;;;;;;;;;;18.84;42.58;100196.34;4963810;27;98327;-80
2023/04/29 07:50:16;;;;;;;;;;;;;;;18.74;42.64;100204.09;4942447;27;98133;-79
2023/04/29 07:52:42;;;;;;;;;;;;;;;18.76;42.52;100205.38;4975701;27;102145;-79
2023/04/29 07:55:10;;;;;;;;;;;;;;;18.84;42.52;100212.72;4942322;27;98213;-79
2023/04/29 07:57:38;;;;;;;;;;;;;;;18.84;42.65;100210.00;4962115;27;98151;-79
2023/04/29 08:00:09;;;;;;;;;;;;;;;18.72;42.53;100220.00;4937930;27;98254;-79
2023/04/29 08:02:36;;;;;;;;;;;;;;;18.59;43.01;100217.16;4942037;27;98149;-73
2023/04/29 08:05:03;;;;;;;;;;;;;;;18.51;42.98;100223.44;4960178;27;98555;-73
2023/04/29 08:07:33;;;;;;;;;;;;;;;18.42;43.10;100219.91;4939720;27;98427;-79
2023/04/29 08:10:00;;;;;;;;;;;;;;;18.31;43.27;100235.03;4958375;27;98304;-73
2023/04/29 08:12:27;;;;;;;;;;;;;;;18.34;43.03;100235.19;4964527;27;98298;-74
2023/04/29 08:14:54;;;;;;;;;;;;;;;18.32;43.15;100239.38;4958242;27;98410;-74
2023/04/29 08:17:20;;;;;;;;;;;;;;;18.21;43.23;100243.56;4960777;27;99886;-74
2023/04/29 08:19:46;;;;;;;;;;;;;;;18.35;43.06;100241.44;4958582;27;97958;-74
2023/04/29 08:22:13;;;;;;;;;;;;;;;18.39;42.93;100242.38;4964806;27;97987;-75
2023/04/29 08:24:41;;;;;;;;;;;;;;;18.37;42.97;100250.91;4959130;27;98401;-75
2023/04/29 08:27:11;;;;;;;;;;;;;;;18.28;42.98;100244.69;4960551;27;98951;-80
2023/04/29 08:29:38;;;;;;;;;;;;;;;18.24;43.27;100245.66;4958731;27;97806;-80
2023/04/29 08:32:04;;;;;;;;;;;;;;;18.26;43.00;100246.91;4945529;27;98109;-74
2023/04/29 08:34:32;;;;;;;;;;;;;;;18.33;42.97;100244.50;4955204;27;98197;-79
2023/04/29 08:36:58;;;;;;;;;;;;;;;18.35;43.03;100255.06;4959594;27;98055;-74
2023/04/29 08:39:25;;;;;;;;;;;;;;;18.33;43.18;100251.88;4954136;27;98014;-75
2023/04/29 08:41:55;;;;;;;;;;;;;;;18.33;43.19;100251.88;4960669;27;98083;-75
2023/04/29 08:44:24;;;;;;;;;;;;;;;18.37;42.95;100252.84;4940996;27;98064;-80
2023/04/29 08:46:52;;;;;;;;;;;;;;;18.40;43.06;100261.19;4957073;27;98670;-75
2023/04/29 08:49:18;;;;;;;;;;;;;;;18.39;43.08;100256.03;4938964;27;98451;-79
2023/04/29 08:51:47;;;;;;;;;;;;;;;18.32;43.33;100255.75;4940701;27;98073;-80
2023/04/29 08:54:15;;;;;;;;;;;;;;;18.27;43.38;100261.34;4960776;27;98254;-80
2023/04/29 08:56:46;;;;;;;;;;;;;;;18.27;43.26;100264.88;4940829;27;98204;-74
2023/04/29 08:59:14;;;;;;;;;;;;;;;18.42;43.11;100262.78;4942223;27;97939;-75
2023/04/29 09:01:41;;;;;;;;;;;;;;;18.56;42.96;100269.66;4956025;27;98215;-74
2023/04/29 09:04:46;;;;;;;;;;;;;;;18.67;42.62;100266.53;4943769;27;98258;-75
2023/04/29 09:07:13;;;;;;;;;;;;;;;18.75;42.78;100273.97;4928942;27;97995;-74
2023/04/29 09:09:40;;;;;;;;;;;;;;;18.80;42.89;100265.59;4941041;27;98144;-75
2023/04/29 09:12:08;;;;;;;;;;;;;;;18.99;42.66;100265.19;4955605;27;98292;-75
2023/04/29 09:14:34;;;;;;;;;;;;;;;18.96;42.79;100266.63;4942360;27;98181;-75
2023/04/29 09:17:01;;;;;;;;;;;;;;;18.90;42.98;100270.66;4959752;27;98231;-75
2023/04/29 09:19:37;;;;;;;;;;;;;;;18.84;43.03;100280.19;4960880;27;98231;-80
2023/04/29 09:22:06;;;;;;;;;;;;;;;18.93;42.73;100280.16;4975793;27;98055;-75
2023/04/29 09:24:33;;;;;;;;;;;;;;;19.13;42.76;100273.94;4958557;27;99939;-80
2023/04/29 09:27:02;;;;;;;;;;;;;;;19.27;42.68;100290.13;4959509;27;97917;-75
2023/04/29 09:29:29;;;;;;;;;;;;;;;19.56;42.19;100287.34;4942128;27;99450;-80
2023/04/29 09:31:57;;;;;;;;;;;;;;;19.78;42.11;100277.28;4962504;27;98446;-81
2023/04/29 09:34:39;;;;;;;;;;;;;;;19.89;42.09;100283.94;4940945;27;98757;-81
2023/04/29 09:37:25;;;;;;;;;;;;;;;19.89;42.43;100292.16;4947585;27;101000;-75
2023/04/29 09:39:53;;;;;;;;;;;;;;;19.84;42.45;100289.59;4949454;27;98125;-75
2023/04/29 09:42:20;;;;;;;;;;;;;;;19.72;42.70;100297.72;4965392;27;98317;-80
2023/04/29 09:44:46;;;;;;;;;;;;;;;19.60;42.86;100299.22;4960110;27;98793;-75
2023/04/29 09:47:16;;;;;;;;;;;;;;;19.45;43.10;100309.94;4949507;27;98461;-80
2023/04/29 09:49:44;;;;;;;;;;;;;;;19.33;43.07;100316.09;4946985;27;98241;-80
2023/04/29 09:52:17;;;;;;;;;;;;;;;19.30;43.09;100320.31;4960720;27;98475;-80
2023/04/29 09:54:43;;;;;;;;;;;;;;;19.39;43.03;100323.00;4964540;27;98441;-75
2023/04/29 09:57:10;;;;;;;;;;;;;;;19.41;43.09;100325.38;4958512;27;100567;-75
2023/04/29 09:59:38;;;;;;;;;;;;;;;19.40;43.11;100327.31;4946699;27;98246;-75
2023/04/29 10:02:22;;;;;;;;;;;;;;;19.52;42.84;100329.34;4957030;27;98165;-81
2023/04/29 10:04:58;;;;;;;;;;;;;;;19.85;42.52;100324.84;4948379;27;98618;-75
2023/04/29 10:07:27;;;;;;;;;;;;;;;19.87;42.48;100338.16;4960942;27;98255;-80
2023/04/29 10:09:55;;;;;;;;;;;;;;;19.85;42.61;100338.50;4963618;27;98170;-80
2023/04/29 10:12:21;;;;;;;;;;;;;;;19.68;42.85;100335.06;4945717;27;98256;-75
2023/04/29 10:14:54;;;;;;;;;;;;;;;19.51;43.04;100334.03;4943436;27;98291;-80
2023/04/29 10:17:31;;;;;;;;;;;;;;;19.38;43.23;100341.34;4964192;27;98017;-81
2023/04/29 10:20:04;;;;;;;;;;;;;;;19.24;43.44;100343.47;4963984;27;98623;-79
2023/04/29 10:22:45;;;;;;;;;;;;;;;19.24;43.40;100364.53;4944471;27;98342;-81
2023/04/29 10:25:13;;;;;;;;;;;;;;;19.25;43.35;100364.19;4948035;27;98867;-76
2023/04/29 10:27:43;;;;;;;;;;;;;;;19.56;42.81;100361.16;4960531;27;98047;-76
2023/04/29 10:30:15;;;;;;;;;;;;;;;19.96;42.37;100358.03;4960645;27;101365;-81
2023/04/29 10:32:42;;;;;;;;;;;;;;;19.80;42.79;100357.03;4946913;27;98288;-76
2023/04/29 10:35:09;;;;;;;;;;;;;;;19.59;43.10;100374.16;4951327;27;98189;-76
2023/04/29 10:37:36;;;;;;;;;;;;;;;19.44;43.35;100372.00;4964314;27;98503;-76
2023/04/29 10:40:25;;;;;;;;;;;;;;;19.34;43.27;100381.38;4940181;27;98415;-77
2023/04/29 10:42:52;;;;;;;;;;;;;;;19.22;43.50;100380.47;4973632;27;98825;-76
2023/04/29 10:45:34;;;;;;;;;;;;;;;19.11;43.47;100386.28;4961188;27;98399;-76
2023/04/29 10:48:10;;;;;;;;;;;;;;;18.99;43.47;100388.09;4961095;27;98070;-80
2023/04/29 10:50:52;;;;;;;;;;;;;;;18.80;43.65;100391.97;4986473;27;98076;-75
2023/04/29 10:53:19;;;;;;;;;;;;;;;18.61;43.84;100392.28;4989917;27;98288;-76
2023/04/29 10:55:54;;;;;;;;;;;;;;;18.47;44.05;100401.75;4963407;27;98155;-80
2023/04/29 10:58:45;;;;;;;;;;;;;;;18.35;44.02;100399.69;4982127;27;98874;-81
2023/04/29 11:01:17;;;;;;;;;;;;;;;18.34;43.80;100398.06;4956129;27;98443;-80
2023/04/29 11:04:00;;;;;;;;;;;;;;;18.26;43.72;100402.41;4942219;27;98095;-75
2023/04/29 11:06:39;;;;;;;;;;;;;;;18.21;43.72;100402.56;4943553;27;98228;-75
2023/04/29 11:09:23;;;;;;;;;;;;;;;18.19;43.81;100409.47;4976720;27;98090;-75
2023/04/29 11:12:04;;;;;;;;;;;;;;;18.17;43.81;100403.53;4990009;27;98056;-75
2023/04/29 11:14:31;;;;;;;;;;;;;;;18.16;43.68;100413.66;4980114;27;98209;-76
2023/04/29 11:17:00;;;;;;;;;;;;;;;18.16;43.66;100421.84;4963772;27;97979;-75
2023/04/29 11:19:32;;;;;;;;;;;;;;;18.17;43.75;100417.19;4943357;27;98254;-76
2023/04/29 11:22:23;;;;;;;;;;;;;;;18.31;43.54;100415.91;4962404;27;98188;-80
2023/04/29 11:24:59;;;;;;;;;;;;;;;18.58;43.28;100422.16;4945329;27;98245;-75
2023/04/29 11:27:29;;;;;;;;;;;;;;;18.84;43.03;100419.44;4946064;27;98125;-80
2023/04/29 11:29:59;;;;;;;;;;;;;;;18.92;42.78;100412.34;4958078;27;98008;-80
2023/04/29 11:32:27;;;;;;;;;;;;;;;19.10;42.60;100420.19;4956475;27;98033;-76
2023/04/29 11:34:53;;;;;;;;;;;;;;;19.23;42.84;100426.56;4945576;27;98311;-74
2023/04/29 11:37:27;;;;;;;;;;;;;;;19.33;42.77;100425.41;4944157;27;98208;-80
2023/04/29 11:40:04;;;;;;;;;;;;;;;19.38;42.79;100428.78;4959345;27;98038;-74
2023/04/29 11:42:33;;;;;;;;;;;;;;;19.27;42.96;100429.47;4954211;27;101074;-80
2023/04/29 11:45:00;;;;;;;;;;;;;;;19.39;42.87;100435.03;4053936;27;10000508;-80
2023/04/29 11:47:33;;;;;;;;;;;;;;;19.34;43.05;100435.22;4956439;27;98233;-81
2023/04/29 11:50:09;;;;;;;;;;;;;;;19.33;43.09;100436.34;4939862;27;98622;-80
2023/04/29 11:52:36;;;;;;;;;;;;;;;19.17;43.29;100449.72;4945700;27;98099;-81
2023/04/29 11:55:03;;;;;;;;;;;;;;;19.16;43.32;100447.31;4956756;27;99050;-81
2023/04/29 11:57:30;;;;;;;;;;;;;;;19.31;43.08;100453.06;4938932;27;98284;-74
2023/04/29 12:00:00;;;;;;;;;;;;;;;19.56;42.75;100453.31;4959915;27;98680;-74
2023/04/29 12:02:33;;;;;;;;;;;;;;;19.51;42.67;100458.97;4959281;27;98037;-74
2023/04/29 12:05:07;;;;;;;;;;;;;;;19.30;43.24;100467.06;4962019;27;98196;-80
2023/04/29 12:07:36;;;;;;;;;;;;;;;19.12;43.49;100467.09;4972909;27;98058;-80
2023/04/29 12:10:02;;;;;;;;;;;;;;;18.92;43.57;100481.44;4959449;27;99473;-74
2023/04/29 12:12:33;;;;;;;;;;;;;;;18.80;43.72;100476.63;4959713;27;99583;-80
2023/04/29 12:15:01;;;;;;;;;;;;;;;18.67;43.88;100476.72;4957647;27;98064;-74
2023/04/29 12:17:28;;;;;;;;;;;;;;;18.50;43.83;100475.59;4962326;27;98193;-75
2023/04/29 12:19:56;;;;;;;;;;;;;;;18.35;44.09;100487.81;4961445;27;98121;-80
2023/04/29 12:22:30;;;;;;;;;;;;;;;18.24;43.94;100486.50;4956266;27;98316;-74
2023/04/29 12:24:56;;;;;;;;;;;;;;;18.11;44.08;100482.75;4961414;27;98328;-74
2023/04/29 12:27:22;;;;;;;;;;;;;;;18.01;44.03;100491.25;4944592;27;98021;-74
2023/04/29 12:29:50;;;;;;;;;;;;;;;17.93;44.05;100505.66;4938561;27;98122;-74
2023/04/29 12:32:17;;;;;;;;;;;;;;;17.82;44.06;100496.97;4955951;27;98785;-74
2023/04/29 12:34:49;;;;;;;;;;;;;;;17.76;44.19;100497.41;4959643;27;98479;-80
2023/04/29 12:37:17;;;;;;;;;;;;;;;17.71;44.09;100503.78;4955410;27;98394;-74
2023/04/29 12:39:45;;;;;;;;;;;;;;;17.72;44.09;100502.66;4955476;27;98495;-80
2023/04/29 12:42:18;;;;;;;;;;;;;;;17.91;43.72;100510.63;4958885;27;98401;-74
2023/04/29 12:44:49;;;;;;;;;;;;;;;17.87;43.78;100510.44;4960245;27;98243;-79
2023/04/29 12:47:16;;;;;;;;;;;;;;;17.76;44.01;100511.03;4961583;27;99987;-80